Long Hua — VRFR5 — position and weather

sailwx.info

Track history (hours):
 
Tides and Currents Weather Stations Pressure Air Temp Water Temp Dewpoint Dewpoint Depression Visibility Wind Speed Wind Dir Waves Ship Positions

Long Hua

Last reported at 2018-Jan-12 14:57 UTC. Time now 2018-Apr-20 20:24 UTC.
Position N 25°11' E 121°44'.
Warning: this ship's position is months out of date.

Length 180 m; draft 8.9 m.

Type: Cargo ship. MMSI: 477622800.

Date/timePositionNaut miles runAvg speedWind from/ knotsBaromVisibWave heightAir tempDewpointWater temp
2018-Jan-12 14:57N 25°11' E 121°44'0 0.1
2018-Jan-12 14:30N 25°11' E 121°44'0 0.0
2018-Jan-12 14:00N 25°11' E 121°44'0 0.0
2018-Jan-12 13:30N 25°11' E 121°44'0 0.0
2018-Jan-12 13:00N 25°11' E 121°44'0 0.0
2018-Jan-12 12:30N 25°11' E 121°44'0 0.1
2018-Jan-12 12:00N 25°11' E 121°44'0 0.0
2018-Jan-12 11:30N 25°11' E 121°44'0 0.0
2018-Jan-12 10:57N 25°11' E 121°44'0 0.1
2018-Jan-12 10:27N 25°11' E 121°44'0 0.0
2018-Jan-12 10:00N 25°11' E 121°44'0 0.0
2018-Jan-12 09:30N 25°12' E 121°44'0 0.0
2018-Jan-12 09:00N 25°12' E 121°44'0 0.0
2018-Jan-12 08:30N 25°12' E 121°44'0 0.0
2018-Jan-12 08:00N 25°12' E 121°44'0 0.0
2018-Jan-12 07:30N 25°12' E 121°44'0 0.1
2018-Jan-12 06:57N 25°11' E 121°44'0 0.1
2018-Jan-12 06:27N 25°11' E 121°44'0 0.0
2018-Jan-12 06:00N 25°11' E 121°44'0 0.0
2018-Jan-12 05:30N 25°11' E 121°44'0 0.1
2018-Jan-12 05:00N 25°11' E 121°44'0 0.0
2018-Jan-12 04:27N 25°11' E 121°44'0 0.1
2018-Jan-12 04:00N 25°11' E 121°44'0 0.0
2018-Jan-12 03:30N 25°11' E 121°44'0 0.0
2018-Jan-12 03:00N 25°11' E 121°44'0 0.1
2018-Jan-12 02:30N 25°11' E 121°44'0 0.0
2018-Jan-12 02:00N 25°11' E 121°44'0 0.0
2018-Jan-12 01:30N 25°11' E 121°44'0 0.0
2018-Jan-12 01:00N 25°11' E 121°44'0 0.1
2018-Jan-12 00:30N 25°11' E 121°44'0 0.0
2018-Jan-12 00:00N 25°11' E 121°44'0 0.0
2018-Jan-11 23:30N 25°11' E 121°44'0 0.0
2018-Jan-11 23:00N 25°11' E 121°44'0 0.1
2018-Jan-11 22:30N 25°11' E 121°44'0 0.0
2018-Jan-11 22:00N 25°12' E 121°44'0 0.0
2018-Jan-11 21:30N 25°12' E 121°44'0 0.0
2018-Jan-11 21:00N 25°12' E 121°44'0 0.0
2018-Jan-11 20:30N 25°12' E 121°44'0 0.0
2018-Jan-11 20:00N 25°11' E 121°44'0 0.0
2018-Jan-11 19:27N 25°11' E 121°44'0 0.0
2018-Jan-11 19:00N 25°11' E 121°44'0 0.0
2018-Jan-11 18:30N 25°12' E 121°44'0 0.0
2018-Jan-11 18:00N 25°12' E 121°44'0 0.1
2018-Jan-11 17:30N 25°11' E 121°44'0 0.1
2018-Jan-11 17:00N 25°11' E 121°44'0 0.1
2018-Jan-11 16:30N 25°11' E 121°44'0 0.0
2018-Jan-11 15:57N 25°11' E 121°44'0 0.0
2018-Jan-11 15:30N 25°11' E 121°44'0 0.2
2018-Jan-11 14:57N 25°11' E 121°44'0 0.0
2018-Jan-11 14:30N 25°11' E 121°44'0 0.9
2018-Jan-11 14:00N 25°12' E 121°44'3 6.3
2018-Jan-11 13:30N 25°15' E 121°43'612.0
2018-Jan-11 13:00N 25°19' E 121°38'167 9.5
2018-Jan-10 19:26N 24°29' E 118°42'510.4
2018-Jan-10 19:00N 24°26' E 118°38'510.4
2018-Jan-10 18:30N 24°23' E 118°34'510.5
2018-Jan-10 18:00N 24°21' E 118°28'510.2
2018-Jan-10 17:30N 24°20' E 118°23'510.9
2018-Jan-10 17:00N 24°20' E 118°17'510.0
2018-Jan-10 16:30N 24°21' E 118°12'5 9.8
2018-Jan-10 16:00N 24°23' E 118°07'4 8.0
2018-Jan-10 15:30N 24°25' E 118°03'0 0.6
2018-Jan-10 14:56N 24°25' E 118°02'0 0.0
2018-Jan-10 14:29N 24°25' E 118°02'0 0.0
2018-Jan-10 13:59N 24°25' E 118°02'0 0.0
2018-Jan-10 13:29N 24°25' E 118°02'0 0.0
2018-Jan-10 12:59N 24°25' E 118°02'0 0.0
2018-Jan-10 12:29N 24°25' E 118°02'0 0.0
2018-Jan-10 11:59N 24°25' E 118°02'0 0.0
2018-Jan-10 11:29N 24°25' E 118°02'0 0.0
2018-Jan-10 10:59N 24°25' E 118°02'0 0.0
2018-Jan-10 10:29N 24°25' E 118°02'0 0.0
2018-Jan-10 09:59N 24°25' E 118°02'0 0.0
2018-Jan-10 09:29N 24°25' E 118°02'0 0.0
2018-Jan-10 08:59N 24°25' E 118°02'0 0.0
2018-Jan-10 08:29N 24°25' E 118°02'0 0.0
2018-Jan-10 07:59N 24°25' E 118°02'0 0.0
2018-Jan-10 07:29N 24°25' E 118°02'0 0.0
2018-Jan-10 06:59N 24°25' E 118°02'0 0.0
2018-Jan-10 06:29N 24°25' E 118°02'0 0.0
2018-Jan-10 05:59N 24°25' E 118°02'0 0.0
2018-Jan-10 05:29N 24°25' E 118°02'0 0.0
2018-Jan-10 04:59N 24°25' E 118°02'0 0.0
2018-Jan-10 04:29N 24°25' E 118°02'0 0.0
2018-Jan-10 03:59N 24°25' E 118°02'0 0.0
2018-Jan-10 03:29N 24°25' E 118°02'0 0.0
2018-Jan-10 02:59N 24°25' E 118°02'0 0.0
2018-Jan-10 02:29N 24°25' E 118°02'0 0.0
2018-Jan-10 01:59N 24°25' E 118°02'0 0.0
2018-Jan-10 01:29N 24°25' E 118°02'0 0.0
2018-Jan-10 00:59N 24°25' E 118°02'0 0.0
2018-Jan-10 00:29N 24°25' E 118°02'0 0.0
2018-Jan-09 23:59N 24°25' E 118°02'0 0.0
2018-Jan-09 23:29N 24°25' E 118°02'0 0.0
2018-Jan-09 22:59N 24°25' E 118°02'0 0.0
2018-Jan-09 22:29N 24°25' E 118°02'0 0.0
2018-Jan-09 21:59N 24°25' E 118°02'0 0.0
2018-Jan-09 21:29N 24°25' E 118°02'0 0.0
2018-Jan-09 20:59N 24°25' E 118°02'0 0.0
2018-Jan-09 20:29N 24°25' E 118°02'0 0.0
2018-Jan-09 19:59N 24°25' E 118°02'0 0.0
2018-Jan-09 19:29N 24°25' E 118°02'0 0.0
2018-Jan-09 18:59N 24°25' E 118°02'0 0.0
2018-Jan-09 18:29N 24°25' E 118°02'0 0.0
2018-Jan-09 17:59N 24°25' E 118°02'0 0.0
2018-Jan-09 17:29N 24°25' E 118°02'0 0.0
2018-Jan-09 16:59N 24°25' E 118°02'0 0.0
2018-Jan-09 16:29N 24°25' E 118°02'0 0.0
2018-Jan-09 15:59N 24°25' E 118°02'0 0.0
2018-Jan-09 15:29N 24°25' E 118°02'0 0.0
2018-Jan-09 14:59N 24°25' E 118°02'0 0.0
2018-Jan-09 14:29N 24°25' E 118°02'0 0.0
2018-Jan-09 13:59N 24°25' E 118°02'0 0.0
2018-Jan-09 13:29N 24°25' E 118°02'0 0.0
2018-Jan-09 12:59N 24°25' E 118°02'0 0.0
2018-Jan-09 12:29N 24°25' E 118°02'0 0.0
2018-Jan-09 11:59N 24°25' E 118°02'0 0.0
2018-Jan-09 11:29N 24°25' E 118°02'0 0.0
2018-Jan-09 10:59N 24°25' E 118°02'0 0.0
2018-Jan-09 10:29N 24°25' E 118°02'0 0.0
2018-Jan-09 09:59N 24°25' E 118°02'0 0.0
2018-Jan-09 09:29N 24°25' E 118°02'0 0.0
2018-Jan-09 08:59N 24°25' E 118°02'0 0.0
2018-Jan-09 08:29N 24°25' E 118°02'0 0.0
2018-Jan-09 07:59N 24°25' E 118°02'0 0.0
2018-Jan-09 07:29N 24°25' E 118°02'0 0.0
2018-Jan-09 06:59N 24°25' E 118°02'0 0.0
2018-Jan-09 06:29N 24°25' E 118°02'0 0.0
2018-Jan-09 05:59N 24°25' E 118°02'0 0.0
2018-Jan-09 05:29N 24°25' E 118°02'0 0.0
2018-Jan-09 04:59N 24°25' E 118°02'0 0.0
2018-Jan-09 04:29N 24°25' E 118°02'0 0.0
2018-Jan-09 03:59N 24°25' E 118°02'0 0.0
2018-Jan-09 03:29N 24°25' E 118°02'0 0.0
2018-Jan-09 02:59N 24°25' E 118°02'0 0.0
2018-Jan-09 02:29N 24°25' E 118°02'0 0.0
2018-Jan-09 01:59N 24°25' E 118°02'0 0.0
2018-Jan-09 01:29N 24°25' E 118°02'0 0.0
2018-Jan-09 00:59N 24°25' E 118°02'0 0.0
2018-Jan-09 00:29N 24°25' E 118°02'0 0.0
2018-Jan-08 23:59N 24°25' E 118°02'0 0.0
2018-Jan-08 23:29N 24°25' E 118°02'0 0.0
2018-Jan-08 22:56N 24°25' E 118°02'0 0.0
2018-Jan-08 22:26N 24°25' E 118°02'0 0.0
2018-Jan-08 21:59N 24°25' E 118°02'0 0.0
2018-Jan-08 21:29N 24°25' E 118°02'0 0.0
2018-Jan-08 20:59N 24°25' E 118°02'0 0.0
2018-Jan-08 20:29N 24°25' E 118°02'0 0.0
2018-Jan-08 19:59N 24°25' E 118°02'0 0.0
2018-Jan-08 19:29N 24°25' E 118°02'0 0.0
2018-Jan-08 18:59N 24°25' E 118°02'0 0.0
2018-Jan-08 18:29N 24°25' E 118°02'0 0.0
2018-Jan-08 17:59N 24°25' E 118°02'0 0.0
2018-Jan-08 17:29N 24°25' E 118°02'0 0.0
2018-Jan-08 16:59N 24°25' E 118°02'0 0.0
2018-Jan-08 16:29N 24°25' E 118°02'0 0.0
2018-Jan-08 15:59N 24°25' E 118°02'0 0.0
2018-Jan-08 15:29N 24°25' E 118°02'0 0.0
2018-Jan-08 14:59N 24°25' E 118°02'0 0.0
2018-Jan-08 14:29N 24°25' E 118°02'0 0.0
2018-Jan-08 13:59N 24°25' E 118°02'0 0.0
2018-Jan-08 13:29N 24°25' E 118°02'0 0.0
2018-Jan-08 12:59N 24°25' E 118°02'0 0.0
2018-Jan-08 12:29N 24°25' E 118°02'0 0.0
2018-Jan-08 11:59N 24°25' E 118°02'0 0.0
2018-Jan-08 11:29N 24°25' E 118°02'0 0.0
2018-Jan-08 10:59N 24°25' E 118°02'0 0.0
2018-Jan-08 10:29N 24°25' E 118°02'1 1.6
2018-Jan-08 10:01N 24°25' E 118°03'4 8.2
2018-Jan-08 09:31N 24°23' E 118°07'611.6
2018-Jan-08 09:01N 24°19' E 118°12'1 2.7
2018-Jan-08 08:30N 24°19' E 118°13'0 0.2
2018-Jan-08 08:00N 24°19' E 118°13'0 0.1
2018-Jan-08 07:30N 24°19' E 118°13'0 0.0
2018-Jan-08 07:00N 24°19' E 118°13'0 0.0
2018-Jan-08 06:30N 24°19' E 118°13'0 0.0
2018-Jan-08 06:00N 24°19' E 118°13'0 0.1
2018-Jan-08 05:30N 24°19' E 118°13'0 0.1
2018-Jan-08 05:00N 24°19' E 118°13'0 0.0
2018-Jan-08 04:30N 24°19' E 118°13'0 0.0
2018-Jan-08 04:00N 24°19' E 118°13'0 0.0
2018-Jan-08 03:30N 24°19' E 118°13'0 0.2
2018-Jan-08 03:00N 24°19' E 118°13'0 0.0
2018-Jan-08 02:30N 24°19' E 118°13'0 0.1
2018-Jan-08 02:00N 24°19' E 118°13'0 0.1
2018-Jan-08 01:30N 24°19' E 118°13'0 0.0
2018-Jan-08 00:57N 24°19' E 118°13'0 0.0
2018-Jan-08 00:30N 24°19' E 118°13'0 0.0
2018-Jan-08 00:00N 24°19' E 118°13'0 0.0
2018-Jan-07 23:30N 24°19' E 118°13'0 0.1
2018-Jan-07 23:00N 24°19' E 118°13'0 0.0
2018-Jan-07 22:30N 24°19' E 118°13'0 0.0
2018-Jan-07 21:54N 24°19' E 118°13'0 0.0
2018-Jan-07 21:30N 24°19' E 118°13'0 0.1
2018-Jan-07 21:00N 24°19' E 118°13'0 0.1
2018-Jan-07 20:30N 24°19' E 118°13'0 0.0
2018-Jan-07 20:00N 24°19' E 118°13'0 0.0
2018-Jan-07 19:27N 24°19' E 118°13'0 0.0
2018-Jan-07 19:00N 24°19' E 118°13'0 0.1
2018-Jan-07 18:30N 24°19' E 118°13'0 0.1
2018-Jan-07 18:00N 24°19' E 118°13'0 0.1
2018-Jan-07 17:30N 24°19' E 118°13'0 0.0
2018-Jan-07 17:00N 24°19' E 118°13'0 0.1
2018-Jan-07 16:30N 24°19' E 118°13'0 0.0
2018-Jan-07 16:00N 24°19' E 118°13'0 0.0
2018-Jan-07 15:30N 24°19' E 118°13'0 0.0
2018-Jan-07 15:00N 24°19' E 118°13'0 0.0
2018-Jan-07 14:30N 24°19' E 118°13'0 0.0
2018-Jan-07 14:00N 24°19' E 118°13'0 0.0
2018-Jan-07 13:30N 24°19' E 118°13'0 0.1
2018-Jan-07 13:00N 24°19' E 118°13'0 0.0
2018-Jan-07 12:30N 24°19' E 118°13'0 0.0
2018-Jan-07 12:00N 24°19' E 118°13'0 0.0
2018-Jan-07 11:30N 24°19' E 118°13'0 0.0
2018-Jan-07 11:00N 24°19' E 118°13'0 0.1
2018-Jan-07 10:30N 24°19' E 118°13'0 0.0
2018-Jan-07 10:00N 24°19' E 118°13'0 0.0
2018-Jan-07 09:30N 24°19' E 118°13'0 0.1
2018-Jan-07 09:00N 24°19' E 118°13'0 0.1
2018-Jan-07 08:30N 24°19' E 118°13'0 0.0
2018-Jan-07 08:00N 24°19' E 118°13'0 0.0
2018-Jan-07 07:30N 24°19' E 118°13'0 0.0
2018-Jan-07 07:00N 24°19' E 118°13'0 0.0
2018-Jan-07 06:27N 24°19' E 118°13'0 0.0
2018-Jan-07 06:00N 24°19' E 118°13'0 0.2
2018-Jan-07 05:30N 24°19' E 118°13'0 0.1
2018-Jan-07 05:00N 24°19' E 118°13'0 0.0
2018-Jan-07 04:30N 24°19' E 118°13'0 0.0
2018-Jan-07 04:00N 24°19' E 118°13'0 0.2
2018-Jan-07 03:30N 24°19' E 118°13'0 0.0
2018-Jan-07 03:00N 24°19' E 118°13'0 0.0
2018-Jan-07 02:30N 24°19' E 118°13'0 0.0
2018-Jan-07 02:00N 24°19' E 118°13'0 0.0
2018-Jan-07 01:30N 24°19' E 118°13'0 0.1
2018-Jan-07 00:30N 24°19' E 118°13'0 0.0
2018-Jan-07 00:00N 24°19' E 118°13'0 0.0
2018-Jan-06 23:30N 24°19' E 118°13'0 0.0
2018-Jan-06 23:00N 24°19' E 118°13'0 0.1
2018-Jan-06 22:30N 24°19' E 118°13'0 0.0
2018-Jan-06 22:00N 24°19' E 118°13'0 0.0
2018-Jan-06 21:30N 24°19' E 118°13'0 0.0
2018-Jan-06 21:00N 24°19' E 118°13'0 0.1
2018-Jan-06 20:30N 24°19' E 118°13'0 0.0
2018-Jan-06 20:00N 24°19' E 118°13'0 0.0
2018-Jan-06 19:30N 24°19' E 118°13'0 0.0
2018-Jan-06 19:00N 24°19' E 118°13'0 0.0
2018-Jan-06 18:30N 24°19' E 118°13'0 0.0
2018-Jan-06 18:00N 24°19' E 118°13'0 0.1
2018-Jan-06 17:30N 24°19' E 118°13'0 0.0
2018-Jan-06 17:00N 24°19' E 118°13'0 0.0
2018-Jan-06 16:30N 24°19' E 118°13'0 0.0
2018-Jan-06 16:00N 24°19' E 118°13'0 0.0
2018-Jan-06 15:30N 24°19' E 118°13'0 0.0
2018-Jan-06 15:00N 24°19' E 118°13'0 0.1
2018-Jan-06 14:30N 24°19' E 118°13'0 0.0
2018-Jan-06 14:00N 24°19' E 118°13'0 0.1
2018-Jan-06 13:30N 24°19' E 118°13'0 0.0
2018-Jan-06 13:00N 24°19' E 118°13'0 0.0
2018-Jan-06 12:30N 24°19' E 118°13'0 0.0
2018-Jan-06 12:00N 24°19' E 118°13'0 0.0
2018-Jan-06 11:30N 24°19' E 118°13'0 0.0
2018-Jan-06 11:00N 24°19' E 118°13'0 0.0
2018-Jan-06 10:30N 24°19' E 118°13'0 0.1
2018-Jan-06 10:00N 24°19' E 118°13'0 0.0
2018-Jan-06 09:30N 24°19' E 118°13'0 0.1
2018-Jan-06 09:00N 24°19' E 118°13'0 0.0
2018-Jan-06 08:30N 24°19' E 118°13'0 0.1
2018-Jan-06 08:00N 24°19' E 118°13'0 0.0
2018-Jan-06 07:30N 24°19' E 118°13'0 0.0
2018-Jan-06 07:00N 24°19' E 118°13'0 0.0
2018-Jan-06 06:30N 24°19' E 118°13'0 0.1
2018-Jan-06 06:00N 24°19' E 118°13'0 0.0
2018-Jan-06 05:30N 24°19' E 118°13'0 0.0
2018-Jan-06 05:00N 24°19' E 118°13'0 0.0
2018-Jan-06 04:30N 24°19' E 118°13'0 0.0
2018-Jan-06 04:00N 24°19' E 118°13'0 0.1
2018-Jan-06 03:30N 24°19' E 118°13'0 0.1
2018-Jan-06 03:00N 24°19' E 118°13'0 0.0
2018-Jan-06 02:30N 24°19' E 118°13'0 0.0
2018-Jan-06 02:00N 24°19' E 118°13'0 0.1
2018-Jan-06 01:30N 24°19' E 118°13'0 0.0
2018-Jan-06 01:00N 24°19' E 118°13'0 0.0
2018-Jan-06 00:30N 24°19' E 118°13'0 0.0
2018-Jan-06 00:00N 24°19' E 118°13'0 0.0
2018-Jan-05 23:30N 24°19' E 118°13'0 0.1
2018-Jan-05 23:00N 24°19' E 118°13'0 0.1
2018-Jan-05 22:30N 24°19' E 118°13'0 0.0
2018-Jan-05 22:00N 24°19' E 118°13'0 0.0
2018-Jan-05 21:30N 24°19' E 118°13'0 0.0
2018-Jan-05 21:00N 24°19' E 118°13'0 0.0
2018-Jan-05 20:30N 24°19' E 118°13'0 0.0
2018-Jan-05 20:00N 24°19' E 118°13'0 0.0
2018-Jan-05 19:30N 24°19' E 118°13'0 0.0
2018-Jan-05 19:00N 24°19' E 118°13'0 0.0
2018-Jan-05 18:30N 24°19' E 118°13'0 0.1
2018-Jan-05 18:00N 24°19' E 118°13'0 0.1
2018-Jan-05 17:30N 24°19' E 118°13'0 0.0
2018-Jan-05 17:00N 24°19' E 118°13'0 0.1
2018-Jan-05 16:30N 24°19' E 118°13'0 0.0
2018-Jan-05 16:00N 24°19' E 118°13'0 0.0
2018-Jan-05 15:30N 24°19' E 118°13'0 0.0
2018-Jan-05 15:01N 24°19' E 118°13'0 0.0
2018-Jan-05 14:30N 24°19' E 118°13'0 0.0
2018-Jan-05 14:00N 24°19' E 118°13'0 0.0
2018-Jan-05 13:30N 24°19' E 118°13'0 0.0
2018-Jan-05 13:00N 24°19' E 118°13'0 0.1
2018-Jan-05 12:30N 24°19' E 118°13'0 0.0
2018-Jan-05 12:00N 24°19' E 118°13'0 0.0
2018-Jan-05 11:30N 24°19' E 118°13'0 0.0
2018-Jan-05 11:00N 24°19' E 118°13'0 0.0
2018-Jan-05 10:30N 24°19' E 118°13'0 0.0
2018-Jan-05 10:00N 24°19' E 118°13'0 0.0
2018-Jan-05 09:30N 24°19' E 118°13'0 0.0
2018-Jan-05 09:00N 24°19' E 118°13'0 0.1
2018-Jan-05 08:31N 24°19' E 118°13'1 3.0
2018-Jan-05 08:00N 24°20' E 118°14'1 2.9
2018-Jan-05 07:30N 24°21' E 118°15'713.2
2018-Jan-05 07:00N 24°20' E 118°23'714.8
2018-Jan-05 06:30N 24°22' E 118°31'714.7
2018-Jan-05 06:00N 24°24' E 118°38'16412.0
2018-Jan-04 16:23N 25°19' E 121°28'411.4
2018-Jan-04 16:01N 25°21' E 121°33'611.7
2018-Jan-04 15:30N 25°19' E 121°39'612.7
2018-Jan-04 15:01N 25°14' E 121°44'5 9.8
2018-Jan-04 14:31N 25°10' E 121°45'1 1.2
2018-Jan-04 13:59N 25°09' E 121°45'0 0.0
2018-Jan-04 13:29N 25°09' E 121°45'0 0.0
2018-Jan-04 12:59N 25°09' E 121°45'0 0.0
2018-Jan-04 12:28N 25°09' E 121°45'0 0.0
2018-Jan-04 11:58N 25°09' E 121°45'0 0.0
2018-Jan-04 11:28N 25°09' E 121°45'0 0.0
2018-Jan-04 10:58N 25°09' E 121°45'0 0.0
2018-Jan-04 10:28N 25°09' E 121°45'0 0.0
2018-Jan-04 09:58N 25°09' E 121°45'0 0.0
2018-Jan-04 09:29N 25°09' E 121°45'0 0.0
2018-Jan-04 08:59N 25°09' E 121°45'0 0.0
2018-Jan-04 08:29N 25°09' E 121°45'0 0.0
2018-Jan-04 07:59N 25°09' E 121°45'0 0.0
2018-Jan-04 07:29N 25°09' E 121°45'0 0.0
2018-Jan-04 06:58N 25°09' E 121°45'0 0.0
2018-Jan-04 06:29N 25°09' E 121°45'0 0.0
2018-Jan-04 05:58N 25°09' E 121°45'0 0.0
2018-Jan-04 05:28N 25°09' E 121°45'0 0.0
2018-Jan-04 04:58N 25°09' E 121°45'0 0.0
2018-Jan-04 04:28N 25°09' E 121°45'0 0.0
2018-Jan-04 03:59N 25°09' E 121°45'0 0.0
2018-Jan-04 03:29N 25°09' E 121°45'0 0.0
2018-Jan-04 02:58N 25°09' E 121°45'0 0.0
2018-Jan-04 02:28N 25°09' E 121°45'0 0.0
2018-Jan-04 01:59N 25°09' E 121°45'0 0.0
2018-Jan-04 01:28N 25°09' E 121°45'0 0.0
2018-Jan-04 00:59N 25°09' E 121°45'0 0.0
2018-Jan-04 00:28N 25°09' E 121°45'0 0.0
2018-Jan-03 23:58N 25°09' E 121°45'0 0.0
2018-Jan-03 23:28N 25°09' E 121°45'0 0.0
2018-Jan-03 22:59N 25°09' E 121°45'0 0.0
2018-Jan-03 22:28N 25°09' E 121°45'0 0.0
2018-Jan-03 21:58N 25°09' E 121°45'0 0.0
2018-Jan-03 21:28N 25°09' E 121°45'0 0.0
2018-Jan-03 20:58N 25°09' E 121°45'0 0.1
2018-Jan-03 20:28N 25°09' E 121°45'0 0.2
2018-Jan-03 19:58N 25°09' E 121°45'0 0.0
2018-Jan-03 19:28N 25°09' E 121°45'0 0.0
2018-Jan-03 18:59N 25°09' E 121°45'0 0.0
2018-Jan-03 18:28N 25°09' E 121°45'0 0.0
2018-Jan-03 17:58N 25°09' E 121°45'0 0.0
2018-Jan-03 17:25N 25°09' E 121°45'0 0.0
2018-Jan-03 16:58N 25°09' E 121°45'0 0.0
2018-Jan-03 16:29N 25°09' E 121°45'0 0.0
2018-Jan-03 15:58N 25°09' E 121°45'0 0.0
2018-Jan-03 15:29N 25°09' E 121°45'0 0.0
2018-Jan-03 14:59N 25°09' E 121°45'0 0.0
2018-Jan-03 14:28N 25°09' E 121°45'0 0.0
2018-Jan-03 13:58N 25°09' E 121°45'0 0.0
2018-Jan-03 13:29N 25°09' E 121°45'0 0.0
2018-Jan-03 12:59N 25°09' E 121°45'0 0.0
2018-Jan-03 12:29N 25°09' E 121°45'0 0.0
2018-Jan-03 11:58N 25°09' E 121°45'0 0.0
2018-Jan-03 11:28N 25°09' E 121°45'0 0.0
2018-Jan-03 10:58N 25°09' E 121°45'0 0.0
2018-Jan-03 10:28N 25°09' E 121°45'0 0.0
2018-Jan-03 09:58N 25°09' E 121°45'0 0.0
2018-Jan-03 09:28N 25°09' E 121°45'0 0.0
2018-Jan-03 08:59N 25°09' E 121°45'0 0.0
2018-Jan-03 08:28N 25°09' E 121°45'0 0.0
2018-Jan-03 07:58N 25°09' E 121°45'0 0.0
2018-Jan-03 07:28N 25°09' E 121°45'0 0.0
2018-Jan-03 06:58N 25°09' E 121°45'0 0.0
2018-Jan-03 06:28N 25°09' E 121°45'0 0.0
2018-Jan-03 05:58N 25°09' E 121°45'0 0.0
2018-Jan-03 05:28N 25°09' E 121°45'0 0.0
2018-Jan-03 04:58N 25°09' E 121°45'0 0.0
2018-Jan-03 04:29N 25°09' E 121°45'0 0.0
2018-Jan-03 03:59N 25°09' E 121°45'0 0.0
2018-Jan-03 03:28N 25°09' E 121°45'0 0.0
2018-Jan-03 02:58N 25°09' E 121°45'0 0.0
2018-Jan-03 02:28N 25°09' E 121°45'0 0.0
2018-Jan-03 01:59N 25°09' E 121°45'0 0.0
2018-Jan-03 01:29N 25°09' E 121°45'0 0.0
2018-Jan-03 00:59N 25°09' E 121°45'0 0.0
2018-Jan-03 00:29N 25°09' E 121°45'0 0.0
2018-Jan-02 23:58N 25°09' E 121°45'0 0.0
2018-Jan-02 23:29N 25°09' E 121°45'0 0.0
2018-Jan-02 22:59N 25°09' E 121°45'0 0.0
2018-Jan-02 22:28N 25°09' E 121°45'0 0.0
2018-Jan-02 21:59N 25°09' E 121°45'0 0.0
2018-Jan-02 21:28N 25°09' E 121°45'0 0.0
2018-Jan-02 20:58N 25°09' E 121°45'0 0.0
2018-Jan-02 20:28N 25°09' E 121°45'0 0.0
2018-Jan-02 19:58N 25°09' E 121°45'0 0.0
2018-Jan-02 19:28N 25°09' E 121°45'0 0.0
2018-Jan-02 18:52N 25°09' E 121°45'0 0.0
2018-Jan-02 18:28N 25°09' E 121°45'0 0.0
2018-Jan-02 17:58N 25°09' E 121°45'0 0.0
2018-Jan-02 17:28N 25°09' E 121°45'0 0.0
2018-Jan-02 16:58N 25°09' E 121°45'0 0.0
2018-Jan-02 16:28N 25°09' E 121°45'0 0.0
2018-Jan-02 15:58N 25°09' E 121°45'0 0.0
2018-Jan-02 15:28N 25°09' E 121°45'0 0.0
2018-Jan-02 14:58N 25°09' E 121°45'  
Track history (hours):
 
Tides and Currents Weather Stations Pressure Air Temp Water Temp Dewpoint Dewpoint Depression Visibility Wind Speed Wind Dir Waves Ship Positions

Long Hua

Last reported at 2018-Jan-12 14:57 UTC. Time now 2018-Apr-20 20:24 UTC.
Position N 25°11' E 121°44'.
Warning: this ship's position is months out of date.

Length 180 m; draft 8.9 m.

Type: Cargo ship. MMSI: 477622800.

Date/timePositionNaut miles runAvg speedWind from/ knotsBaromVisibWave heightAir tempDewpointWater temp
2018-Jan-12 14:57N 25°11' E 121°44'0 0.1
2018-Jan-12 14:30N 25°11' E 121°44'0 0.0
2018-Jan-12 14:00N 25°11' E 121°44'0 0.0
2018-Jan-12 13:30N 25°11' E 121°44'0 0.0
2018-Jan-12 13:00N 25°11' E 121°44'0 0.0
2018-Jan-12 12:30N 25°11' E 121°44'0 0.1
2018-Jan-12 12:00N 25°11' E 121°44'0 0.0
2018-Jan-12 11:30N 25°11' E 121°44'0 0.0
2018-Jan-12 10:57N 25°11' E 121°44'0 0.1
2018-Jan-12 10:27N 25°11' E 121°44'0 0.0
2018-Jan-12 10:00N 25°11' E 121°44'0 0.0
2018-Jan-12 09:30N 25°12' E 121°44'0 0.0
2018-Jan-12 09:00N 25°12' E 121°44'0 0.0
2018-Jan-12 08:30N 25°12' E 121°44'0 0.0
2018-Jan-12 08:00N 25°12' E 121°44'0 0.0
2018-Jan-12 07:30N 25°12' E 121°44'0 0.1
2018-Jan-12 06:57N 25°11' E 121°44'0 0.1
2018-Jan-12 06:27N 25°11' E 121°44'0 0.0
2018-Jan-12 06:00N 25°11' E 121°44'0 0.0
2018-Jan-12 05:30N 25°11' E 121°44'0 0.1
2018-Jan-12 05:00N 25°11' E 121°44'0 0.0
2018-Jan-12 04:27N 25°11' E 121°44'0 0.1
2018-Jan-12 04:00N 25°11' E 121°44'0 0.0
2018-Jan-12 03:30N 25°11' E 121°44'0 0.0
2018-Jan-12 03:00N 25°11' E 121°44'0 0.1
2018-Jan-12 02:30N 25°11' E 121°44'0 0.0
2018-Jan-12 02:00N 25°11' E 121°44'0 0.0
2018-Jan-12 01:30N 25°11' E 121°44'0 0.0
2018-Jan-12 01:00N 25°11' E 121°44'0 0.1
2018-Jan-12 00:30N 25°11' E 121°44'0 0.0
2018-Jan-12 00:00N 25°11' E 121°44'0 0.0
2018-Jan-11 23:30N 25°11' E 121°44'0 0.0
2018-Jan-11 23:00N 25°11' E 121°44'0 0.1
2018-Jan-11 22:30N 25°11' E 121°44'0 0.0
2018-Jan-11 22:00N 25°12' E 121°44'0 0.0
2018-Jan-11 21:30N 25°12' E 121°44'0 0.0
2018-Jan-11 21:00N 25°12' E 121°44'0 0.0
2018-Jan-11 20:30N 25°12' E 121°44'0 0.0
2018-Jan-11 20:00N 25°11' E 121°44'0 0.0
2018-Jan-11 19:27N 25°11' E 121°44'0 0.0
2018-Jan-11 19:00N 25°11' E 121°44'0 0.0
2018-Jan-11 18:30N 25°12' E 121°44'0 0.0
2018-Jan-11 18:00N 25°12' E 121°44'0 0.1
2018-Jan-11 17:30N 25°11' E 121°44'0 0.1
2018-Jan-11 17:00N 25°11' E 121°44'0 0.1
2018-Jan-11 16:30N 25°11' E 121°44'0 0.0
2018-Jan-11 15:57N 25°11' E 121°44'0 0.0
2018-Jan-11 15:30N 25°11' E 121°44'0 0.2
2018-Jan-11 14:57N 25°11' E 121°44'0 0.0
2018-Jan-11 14:30N 25°11' E 121°44'0 0.9
2018-Jan-11 14:00N 25°12' E 121°44'3 6.3
2018-Jan-11 13:30N 25°15' E 121°43'612.0
2018-Jan-11 13:00N 25°19' E 121°38'167 9.5
2018-Jan-10 19:26N 24°29' E 118°42'510.4
2018-Jan-10 19:00N 24°26' E 118°38'510.4
2018-Jan-10 18:30N 24°23' E 118°34'510.5
2018-Jan-10 18:00N 24°21' E 118°28'510.2
2018-Jan-10 17:30N 24°20' E 118°23'510.9
2018-Jan-10 17:00N 24°20' E 118°17'510.0
2018-Jan-10 16:30N 24°21' E 118°12'5 9.8
2018-Jan-10 16:00N 24°23' E 118°07'4 8.0
2018-Jan-10 15:30N 24°25' E 118°03'0 0.6
2018-Jan-10 14:56N 24°25' E 118°02'0 0.0
2018-Jan-10 14:29N 24°25' E 118°02'0 0.0
2018-Jan-10 13:59N 24°25' E 118°02'0 0.0
2018-Jan-10 13:29N 24°25' E 118°02'0 0.0
2018-Jan-10 12:59N 24°25' E 118°02'0 0.0
2018-Jan-10 12:29N 24°25' E 118°02'0 0.0
2018-Jan-10 11:59N 24°25' E 118°02'0 0.0
2018-Jan-10 11:29N 24°25' E 118°02'0 0.0
2018-Jan-10 10:59N 24°25' E 118°02'0 0.0
2018-Jan-10 10:29N 24°25' E 118°02'0 0.0
2018-Jan-10 09:59N 24°25' E 118°02'0 0.0
2018-Jan-10 09:29N 24°25' E 118°02'0 0.0
2018-Jan-10 08:59N 24°25' E 118°02'0 0.0
2018-Jan-10 08:29N 24°25' E 118°02'0 0.0
2018-Jan-10 07:59N 24°25' E 118°02'0 0.0
2018-Jan-10 07:29N 24°25' E 118°02'0 0.0
2018-Jan-10 06:59N 24°25' E 118°02'0 0.0
2018-Jan-10 06:29N 24°25' E 118°02'0 0.0
2018-Jan-10 05:59N 24°25' E 118°02'0 0.0
2018-Jan-10 05:29N 24°25' E 118°02'0 0.0
2018-Jan-10 04:59N 24°25' E 118°02'0 0.0
2018-Jan-10 04:29N 24°25' E 118°02'0 0.0
2018-Jan-10 03:59N 24°25' E 118°02'0 0.0
2018-Jan-10 03:29N 24°25' E 118°02'0 0.0
2018-Jan-10 02:59N 24°25' E 118°02'0 0.0
2018-Jan-10 02:29N 24°25' E 118°02'0 0.0
2018-Jan-10 01:59N 24°25' E 118°02'0 0.0
2018-Jan-10 01:29N 24°25' E 118°02'0 0.0
2018-Jan-10 00:59N 24°25' E 118°02'0 0.0
2018-Jan-10 00:29N 24°25' E 118°02'0 0.0
2018-Jan-09 23:59N 24°25' E 118°02'0 0.0
2018-Jan-09 23:29N 24°25' E 118°02'0 0.0
2018-Jan-09 22:59N 24°25' E 118°02'0 0.0
2018-Jan-09 22:29N 24°25' E 118°02'0 0.0
2018-Jan-09 21:59N 24°25' E 118°02'0 0.0
2018-Jan-09 21:29N 24°25' E 118°02'0 0.0
2018-Jan-09 20:59N 24°25' E 118°02'0 0.0
2018-Jan-09 20:29N 24°25' E 118°02'0 0.0
2018-Jan-09 19:59N 24°25' E 118°02'0 0.0
2018-Jan-09 19:29N 24°25' E 118°02'0 0.0
2018-Jan-09 18:59N 24°25' E 118°02'0 0.0
2018-Jan-09 18:29N 24°25' E 118°02'0 0.0
2018-Jan-09 17:59N 24°25' E 118°02'0 0.0
2018-Jan-09 17:29N 24°25' E 118°02'0 0.0
2018-Jan-09 16:59N 24°25' E 118°02'0 0.0
2018-Jan-09 16:29N 24°25' E 118°02'0 0.0
2018-Jan-09 15:59N 24°25' E 118°02'0 0.0
2018-Jan-09 15:29N 24°25' E 118°02'0 0.0
2018-Jan-09 14:59N 24°25' E 118°02'0 0.0
2018-Jan-09 14:29N 24°25' E 118°02'0 0.0
2018-Jan-09 13:59N 24°25' E 118°02'0 0.0
2018-Jan-09 13:29N 24°25' E 118°02'0 0.0
2018-Jan-09 12:59N 24°25' E 118°02'0 0.0
2018-Jan-09 12:29N 24°25' E 118°02'0 0.0
2018-Jan-09 11:59N 24°25' E 118°02'0 0.0
2018-Jan-09 11:29N 24°25' E 118°02'0 0.0
2018-Jan-09 10:59N 24°25' E 118°02'0 0.0
2018-Jan-09 10:29N 24°25' E 118°02'0 0.0
2018-Jan-09 09:59N 24°25' E 118°02'0 0.0
2018-Jan-09 09:29N 24°25' E 118°02'0 0.0
2018-Jan-09 08:59N 24°25' E 118°02'0 0.0
2018-Jan-09 08:29N 24°25' E 118°02'0 0.0
2018-Jan-09 07:59N 24°25' E 118°02'0 0.0
2018-Jan-09 07:29N 24°25' E 118°02'0 0.0
2018-Jan-09 06:59N 24°25' E 118°02'0 0.0
2018-Jan-09 06:29N 24°25' E 118°02'0 0.0
2018-Jan-09 05:59N 24°25' E 118°02'0 0.0
2018-Jan-09 05:29N 24°25' E 118°02'0 0.0
2018-Jan-09 04:59N 24°25' E 118°02'0 0.0
2018-Jan-09 04:29N 24°25' E 118°02'0 0.0
2018-Jan-09 03:59N 24°25' E 118°02'0 0.0
2018-Jan-09 03:29N 24°25' E 118°02'0 0.0
2018-Jan-09 02:59N 24°25' E 118°02'0 0.0
2018-Jan-09 02:29N 24°25' E 118°02'0 0.0
2018-Jan-09 01:59N 24°25' E 118°02'0 0.0
2018-Jan-09 01:29N 24°25' E 118°02'0 0.0
2018-Jan-09 00:59N 24°25' E 118°02'0 0.0
2018-Jan-09 00:29N 24°25' E 118°02'0 0.0
2018-Jan-08 23:59N 24°25' E 118°02'0 0.0
2018-Jan-08 23:29N 24°25' E 118°02'0 0.0
2018-Jan-08 22:56N 24°25' E 118°02'0 0.0
2018-Jan-08 22:26N 24°25' E 118°02'0 0.0
2018-Jan-08 21:59N 24°25' E 118°02'0 0.0
2018-Jan-08 21:29N 24°25' E 118°02'0 0.0
2018-Jan-08 20:59N 24°25' E 118°02'0 0.0
2018-Jan-08 20:29N 24°25' E 118°02'0 0.0
2018-Jan-08 19:59N 24°25' E 118°02'0 0.0
2018-Jan-08 19:29N 24°25' E 118°02'0 0.0
2018-Jan-08 18:59N 24°25' E 118°02'0 0.0
2018-Jan-08 18:29N 24°25' E 118°02'0 0.0
2018-Jan-08 17:59N 24°25' E 118°02'0 0.0
2018-Jan-08 17:29N 24°25' E 118°02'0 0.0
2018-Jan-08 16:59N 24°25' E 118°02'0 0.0
2018-Jan-08 16:29N 24°25' E 118°02'0 0.0
2018-Jan-08 15:59N 24°25' E 118°02'0 0.0
2018-Jan-08 15:29N 24°25' E 118°02'0 0.0
2018-Jan-08 14:59N 24°25' E 118°02'0 0.0
2018-Jan-08 14:29N 24°25' E 118°02'0 0.0
2018-Jan-08 13:59N 24°25' E 118°02'0 0.0
2018-Jan-08 13:29N 24°25' E 118°02'0 0.0
2018-Jan-08 12:59N 24°25' E 118°02'0 0.0
2018-Jan-08 12:29N 24°25' E 118°02'0 0.0
2018-Jan-08 11:59N 24°25' E 118°02'0 0.0
2018-Jan-08 11:29N 24°25' E 118°02'0 0.0
2018-Jan-08 10:59N 24°25' E 118°02'0 0.0
2018-Jan-08 10:29N 24°25' E 118°02'1 1.6
2018-Jan-08 10:01N 24°25' E 118°03'4 8.2
2018-Jan-08 09:31N 24°23' E 118°07'611.6
2018-Jan-08 09:01N 24°19' E 118°12'1 2.7
2018-Jan-08 08:30N 24°19' E 118°13'0 0.2
2018-Jan-08 08:00N 24°19' E 118°13'0 0.1
2018-Jan-08 07:30N 24°19' E 118°13'0 0.0
2018-Jan-08 07:00N 24°19' E 118°13'0 0.0
2018-Jan-08 06:30N 24°19' E 118°13'0 0.0
2018-Jan-08 06:00N 24°19' E 118°13'0 0.1
2018-Jan-08 05:30N 24°19' E 118°13'0 0.1
2018-Jan-08 05:00N 24°19' E 118°13'0 0.0
2018-Jan-08 04:30N 24°19' E 118°13'0 0.0
2018-Jan-08 04:00N 24°19' E 118°13'0 0.0
2018-Jan-08 03:30N 24°19' E 118°13'0 0.2
2018-Jan-08 03:00N 24°19' E 118°13'0 0.0
2018-Jan-08 02:30N 24°19' E 118°13'0 0.1
2018-Jan-08 02:00N 24°19' E 118°13'0 0.1
2018-Jan-08 01:30N 24°19' E 118°13'0 0.0
2018-Jan-08 00:57N 24°19' E 118°13'0 0.0
2018-Jan-08 00:30N 24°19' E 118°13'0 0.0
2018-Jan-08 00:00N 24°19' E 118°13'0 0.0
2018-Jan-07 23:30N 24°19' E 118°13'0 0.1
2018-Jan-07 23:00N 24°19' E 118°13'0 0.0
2018-Jan-07 22:30N 24°19' E 118°13'0 0.0
2018-Jan-07 21:54N 24°19' E 118°13'0 0.0
2018-Jan-07 21:30N 24°19' E 118°13'0 0.1
2018-Jan-07 21:00N 24°19' E 118°13'0 0.1
2018-Jan-07 20:30N 24°19' E 118°13'0 0.0
2018-Jan-07 20:00N 24°19' E 118°13'0 0.0
2018-Jan-07 19:27N 24°19' E 118°13'0 0.0
2018-Jan-07 19:00N 24°19' E 118°13'0 0.1
2018-Jan-07 18:30N 24°19' E 118°13'0 0.1
2018-Jan-07 18:00N 24°19' E 118°13'0 0.1
2018-Jan-07 17:30N 24°19' E 118°13'0 0.0
2018-Jan-07 17:00N 24°19' E 118°13'0 0.1
2018-Jan-07 16:30N 24°19' E 118°13'0 0.0
2018-Jan-07 16:00N 24°19' E 118°13'0 0.0
2018-Jan-07 15:30N 24°19' E 118°13'0 0.0
2018-Jan-07 15:00N 24°19' E 118°13'0 0.0
2018-Jan-07 14:30N 24°19' E 118°13'0 0.0
2018-Jan-07 14:00N 24°19' E 118°13'0 0.0
2018-Jan-07 13:30N 24°19' E 118°13'0 0.1
2018-Jan-07 13:00N 24°19' E 118°13'0 0.0
2018-Jan-07 12:30N 24°19' E 118°13'0 0.0
2018-Jan-07 12:00N 24°19' E 118°13'0 0.0
2018-Jan-07 11:30N 24°19' E 118°13'0 0.0
2018-Jan-07 11:00N 24°19' E 118°13'0 0.1
2018-Jan-07 10:30N 24°19' E 118°13'0 0.0
2018-Jan-07 10:00N 24°19' E 118°13'0 0.0
2018-Jan-07 09:30N 24°19' E 118°13'0 0.1
2018-Jan-07 09:00N 24°19' E 118°13'0 0.1
2018-Jan-07 08:30N 24°19' E 118°13'0 0.0
2018-Jan-07 08:00N 24°19' E 118°13'0 0.0
2018-Jan-07 07:30N 24°19' E 118°13'0 0.0
2018-Jan-07 07:00N 24°19' E 118°13'0 0.0
2018-Jan-07 06:27N 24°19' E 118°13'0 0.0
2018-Jan-07 06:00N 24°19' E 118°13'0 0.2
2018-Jan-07 05:30N 24°19' E 118°13'0 0.1
2018-Jan-07 05:00N 24°19' E 118°13'0 0.0
2018-Jan-07 04:30N 24°19' E 118°13'0 0.0
2018-Jan-07 04:00N 24°19' E 118°13'0 0.2
2018-Jan-07 03:30N 24°19' E 118°13'0 0.0
2018-Jan-07 03:00N 24°19' E 118°13'0 0.0
2018-Jan-07 02:30N 24°19' E 118°13'0 0.0
2018-Jan-07 02:00N 24°19' E 118°13'0 0.0
2018-Jan-07 01:30N 24°19' E 118°13'0 0.1
2018-Jan-07 00:30N 24°19' E 118°13'0 0.0
2018-Jan-07 00:00N 24°19' E 118°13'0 0.0
2018-Jan-06 23:30N 24°19' E 118°13'0 0.0
2018-Jan-06 23:00N 24°19' E 118°13'0 0.1
2018-Jan-06 22:30N 24°19' E 118°13'0 0.0
2018-Jan-06 22:00N 24°19' E 118°13'0 0.0
2018-Jan-06 21:30N 24°19' E 118°13'0 0.0
2018-Jan-06 21:00N 24°19' E 118°13'0 0.1
2018-Jan-06 20:30N 24°19' E 118°13'0 0.0
2018-Jan-06 20:00N 24°19' E 118°13'0 0.0
2018-Jan-06 19:30N 24°19' E 118°13'0 0.0
2018-Jan-06 19:00N 24°19' E 118°13'0 0.0
2018-Jan-06 18:30N 24°19' E 118°13'0 0.0
2018-Jan-06 18:00N 24°19' E 118°13'0 0.1
2018-Jan-06 17:30N 24°19' E 118°13'0 0.0
2018-Jan-06 17:00N 24°19' E 118°13'0 0.0
2018-Jan-06 16:30N 24°19' E 118°13'0 0.0
2018-Jan-06 16:00N 24°19' E 118°13'0 0.0
2018-Jan-06 15:30N 24°19' E 118°13'0 0.0
2018-Jan-06 15:00N 24°19' E 118°13'0 0.1
2018-Jan-06 14:30N 24°19' E 118°13'0 0.0
2018-Jan-06 14:00N 24°19' E 118°13'0 0.1
2018-Jan-06 13:30N 24°19' E 118°13'0 0.0
2018-Jan-06 13:00N 24°19' E 118°13'0 0.0
2018-Jan-06 12:30N 24°19' E 118°13'0 0.0
2018-Jan-06 12:00N 24°19' E 118°13'0 0.0
2018-Jan-06 11:30N 24°19' E 118°13'0 0.0
2018-Jan-06 11:00N 24°19' E 118°13'0 0.0
2018-Jan-06 10:30N 24°19' E 118°13'0 0.1
2018-Jan-06 10:00N 24°19' E 118°13'0 0.0
2018-Jan-06 09:30N 24°19' E 118°13'0 0.1
2018-Jan-06 09:00N 24°19' E 118°13'0 0.0
2018-Jan-06 08:30N 24°19' E 118°13'0 0.1
2018-Jan-06 08:00N 24°19' E 118°13'0 0.0
2018-Jan-06 07:30N 24°19' E 118°13'0 0.0
2018-Jan-06 07:00N 24°19' E 118°13'0 0.0
2018-Jan-06 06:30N 24°19' E 118°13'0 0.1
2018-Jan-06 06:00N 24°19' E 118°13'0 0.0
2018-Jan-06 05:30N 24°19' E 118°13'0 0.0
2018-Jan-06 05:00N 24°19' E 118°13'0 0.0
2018-Jan-06 04:30N 24°19' E 118°13'0 0.0
2018-Jan-06 04:00N 24°19' E 118°13'0 0.1
2018-Jan-06 03:30N 24°19' E 118°13'0 0.1
2018-Jan-06 03:00N 24°19' E 118°13'0 0.0
2018-Jan-06 02:30N 24°19' E 118°13'0 0.0
2018-Jan-06 02:00N 24°19' E 118°13'0 0.1
2018-Jan-06 01:30N 24°19' E 118°13'0 0.0
2018-Jan-06 01:00N 24°19' E 118°13'0 0.0
2018-Jan-06 00:30N 24°19' E 118°13'0 0.0
2018-Jan-06 00:00N 24°19' E 118°13'0 0.0
2018-Jan-05 23:30N 24°19' E 118°13'0 0.1
2018-Jan-05 23:00N 24°19' E 118°13'0 0.1
2018-Jan-05 22:30N 24°19' E 118°13'0 0.0
2018-Jan-05 22:00N 24°19' E 118°13'0 0.0
2018-Jan-05 21:30N 24°19' E 118°13'0 0.0
2018-Jan-05 21:00N 24°19' E 118°13'0 0.0
2018-Jan-05 20:30N 24°19' E 118°13'0 0.0
2018-Jan-05 20:00N 24°19' E 118°13'0 0.0
2018-Jan-05 19:30N 24°19' E 118°13'0 0.0
2018-Jan-05 19:00N 24°19' E 118°13'0 0.0
2018-Jan-05 18:30N 24°19' E 118°13'0 0.1
2018-Jan-05 18:00N 24°19' E 118°13'0 0.1
2018-Jan-05 17:30N 24°19' E 118°13'0 0.0
2018-Jan-05 17:00N 24°19' E 118°13'0 0.1
2018-Jan-05 16:30N 24°19' E 118°13'0 0.0
2018-Jan-05 16:00N 24°19' E 118°13'0 0.0
2018-Jan-05 15:30N 24°19' E 118°13'0 0.0
2018-Jan-05 15:01N 24°19' E 118°13'0 0.0
2018-Jan-05 14:30N 24°19' E 118°13'0 0.0
2018-Jan-05 14:00N 24°19' E 118°13'0 0.0
2018-Jan-05 13:30N 24°19' E 118°13'0 0.0
2018-Jan-05 13:00N 24°19' E 118°13'0 0.1
2018-Jan-05 12:30N 24°19' E 118°13'0 0.0
2018-Jan-05 12:00N 24°19' E 118°13'0 0.0
2018-Jan-05 11:30N 24°19' E 118°13'0 0.0
2018-Jan-05 11:00N 24°19' E 118°13'0 0.0
2018-Jan-05 10:30N 24°19' E 118°13'0 0.0
2018-Jan-05 10:00N 24°19' E 118°13'0 0.0
2018-Jan-05 09:30N 24°19' E 118°13'0 0.0
2018-Jan-05 09:00N 24°19' E 118°13'0 0.1
2018-Jan-05 08:31N 24°19' E 118°13'1 3.0
2018-Jan-05 08:00N 24°20' E 118°14'1 2.9
2018-Jan-05 07:30N 24°21' E 118°15'713.2
2018-Jan-05 07:00N 24°20' E 118°23'714.8
2018-Jan-05 06:30N 24°22' E 118°31'714.7
2018-Jan-05 06:00N 24°24' E 118°38'16412.0
2018-Jan-04 16:23N 25°19' E 121°28'411.4
2018-Jan-04 16:01N 25°21' E 121°33'611.7
2018-Jan-04 15:30N 25°19' E 121°39'612.7
2018-Jan-04 15:01N 25°14' E 121°44'5 9.8
2018-Jan-04 14:31N 25°10' E 121°45'1 1.2
2018-Jan-04 13:59N 25°09' E 121°45'0 0.0
2018-Jan-04 13:29N 25°09' E 121°45'0 0.0
2018-Jan-04 12:59N 25°09' E 121°45'0 0.0
2018-Jan-04 12:28N 25°09' E 121°45'0 0.0
2018-Jan-04 11:58N 25°09' E 121°45'0 0.0
2018-Jan-04 11:28N 25°09' E 121°45'0 0.0
2018-Jan-04 10:58N 25°09' E 121°45'0 0.0
2018-Jan-04 10:28N 25°09' E 121°45'0 0.0
2018-Jan-04 09:58N 25°09' E 121°45'0 0.0
2018-Jan-04 09:29N 25°09' E 121°45'0 0.0
2018-Jan-04 08:59N 25°09' E 121°45'0 0.0
2018-Jan-04 08:29N 25°09' E 121°45'0 0.0
2018-Jan-04 07:59N 25°09' E 121°45'0 0.0
2018-Jan-04 07:29N 25°09' E 121°45'0 0.0
2018-Jan-04 06:58N 25°09' E 121°45'0 0.0
2018-Jan-04 06:29N 25°09' E 121°45'0 0.0
2018-Jan-04 05:58N 25°09' E 121°45'0 0.0
2018-Jan-04 05:28N 25°09' E 121°45'0 0.0
2018-Jan-04 04:58N 25°09' E 121°45'0 0.0
2018-Jan-04 04:28N 25°09' E 121°45'0 0.0
2018-Jan-04 03:59N 25°09' E 121°45'0 0.0
2018-Jan-04 03:29N 25°09' E 121°45'0 0.0
2018-Jan-04 02:58N 25°09' E 121°45'0 0.0
2018-Jan-04 02:28N 25°09' E 121°45'0 0.0
2018-Jan-04 01:59N 25°09' E 121°45'0 0.0
2018-Jan-04 01:28N 25°09' E 121°45'0 0.0
2018-Jan-04 00:59N 25°09' E 121°45'0 0.0
2018-Jan-04 00:28N 25°09' E 121°45'0 0.0
2018-Jan-03 23:58N 25°09' E 121°45'0 0.0
2018-Jan-03 23:28N 25°09' E 121°45'0 0.0
2018-Jan-03 22:59N 25°09' E 121°45'0 0.0
2018-Jan-03 22:28N 25°09' E 121°45'0 0.0
2018-Jan-03 21:58N 25°09' E 121°45'0 0.0
2018-Jan-03 21:28N 25°09' E 121°45'0 0.0
2018-Jan-03 20:58N 25°09' E 121°45'0 0.1
2018-Jan-03 20:28N 25°09' E 121°45'0 0.2
2018-Jan-03 19:58N 25°09' E 121°45'0 0.0
2018-Jan-03 19:28N 25°09' E 121°45'0 0.0
2018-Jan-03 18:59N 25°09' E 121°45'0 0.0
2018-Jan-03 18:28N 25°09' E 121°45'0 0.0
2018-Jan-03 17:58N 25°09' E 121°45'0 0.0
2018-Jan-03 17:25N 25°09' E 121°45'0 0.0
2018-Jan-03 16:58N 25°09' E 121°45'0 0.0
2018-Jan-03 16:29N 25°09' E 121°45'0 0.0
2018-Jan-03 15:58N 25°09' E 121°45'0 0.0
2018-Jan-03 15:29N 25°09' E 121°45'0 0.0
2018-Jan-03 14:59N 25°09' E 121°45'0 0.0
2018-Jan-03 14:28N 25°09' E 121°45'0 0.0
2018-Jan-03 13:58N 25°09' E 121°45'0 0.0
2018-Jan-03 13:29N 25°09' E 121°45'0 0.0
2018-Jan-03 12:59N 25°09' E 121°45'0 0.0
2018-Jan-03 12:29N 25°09' E 121°45'0 0.0
2018-Jan-03 11:58N 25°09' E 121°45'0 0.0
2018-Jan-03 11:28N 25°09' E 121°45'0 0.0
2018-Jan-03 10:58N 25°09' E 121°45'0 0.0
2018-Jan-03 10:28N 25°09' E 121°45'0 0.0
2018-Jan-03 09:58N 25°09' E 121°45'0 0.0
2018-Jan-03 09:28N 25°09' E 121°45'0 0.0
2018-Jan-03 08:59N 25°09' E 121°45'0 0.0
2018-Jan-03 08:28N 25°09' E 121°45'0 0.0
2018-Jan-03 07:58N 25°09' E 121°45'0 0.0
2018-Jan-03 07:28N 25°09' E 121°45'0 0.0
2018-Jan-03 06:58N 25°09' E 121°45'0 0.0
2018-Jan-03 06:28N 25°09' E 121°45'0 0.0
2018-Jan-03 05:58N 25°09' E 121°45'0 0.0
2018-Jan-03 05:28N 25°09' E 121°45'0 0.0
2018-Jan-03 04:58N 25°09' E 121°45'0 0.0
2018-Jan-03 04:29N 25°09' E 121°45'0 0.0
2018-Jan-03 03:59N 25°09' E 121°45'0 0.0
2018-Jan-03 03:28N 25°09' E 121°45'0 0.0
2018-Jan-03 02:58N 25°09' E 121°45'0 0.0
2018-Jan-03 02:28N 25°09' E 121°45'0 0.0
2018-Jan-03 01:59N 25°09' E 121°45'0 0.0
2018-Jan-03 01:29N 25°09' E 121°45'0 0.0
2018-Jan-03 00:59N 25°09' E 121°45'0 0.0
2018-Jan-03 00:29N 25°09' E 121°45'0 0.0
2018-Jan-02 23:58N 25°09' E 121°45'0 0.0
2018-Jan-02 23:29N 25°09' E 121°45'0 0.0
2018-Jan-02 22:59N 25°09' E 121°45'0 0.0
2018-Jan-02 22:28N 25°09' E 121°45'0 0.0
2018-Jan-02 21:59N 25°09' E 121°45'0 0.0
2018-Jan-02 21:28N 25°09' E 121°45'0 0.0
2018-Jan-02 20:58N 25°09' E 121°45'0 0.0
2018-Jan-02 20:28N 25°09' E 121°45'0 0.0
2018-Jan-02 19:58N 25°09' E 121°45'0 0.0
2018-Jan-02 19:28N 25°09' E 121°45'0 0.0
2018-Jan-02 18:52N 25°09' E 121°45'0 0.0
2018-Jan-02 18:28N 25°09' E 121°45'0 0.0
2018-Jan-02 17:58N 25°09' E 121°45'0 0.0
2018-Jan-02 17:28N 25°09' E 121°45'0 0.0
2018-Jan-02 16:58N 25°09' E 121°45'0 0.0
2018-Jan-02 16:28N 25°09' E 121°45'0 0.0
2018-Jan-02 15:58N 25°09' E 121°45'0 0.0
2018-Jan-02 15:28N 25°09' E 121°45'0 0.0
2018-Jan-02 14:58N 25°09' E 121°45'  

Dump ship's entire track history